ARP149 VOMM-VCBI
Flight info
| Callsign | ARP149 |
|---|---|
| Flight time | 1h 2m |
| Altitude | 35000 |
| Route | TEGUT V7 SAGOR |
| Aircraft | A20N/M-SDE3FGHIRWY/LB1 |
Departure
| Time | 2026-05-04 19:11 |
|---|---|
| Airport | Chennai International Airport (VOMM) |
Arrival
| Time | 2026-05-04 20:14 |
|---|---|
| Airport | Bandaranaike International Colombo Airport (VCBI) |
| Time | Latitude | Longitude | Altitude | Speed | Heading |
|---|---|---|---|---|---|
| 2026-05-04 18:51 | 12.98334 | 80.16290 | 55 ft | 0 kts | 160° |
| 2026-05-04 19:01 | 12.98339 | 80.16288 | 55 ft | 3 kts | 159° |
| 2026-05-04 19:02 | 12.98358 | 80.16280 | 49 ft | 3 kts | 159° |
| 2026-05-04 19:02 | 12.98377 | 80.16273 | 52 ft | 3 kts | 144° |
| 2026-05-04 19:02 | 12.98390 | 80.16257 | 50 ft | 3 kts | 101° |
| 2026-05-04 19:02 | 12.98391 | 80.16240 | 50 ft | 0 kts | 65° |
| 2026-05-04 19:03 | 12.98391 | 80.16242 | 50 ft | 2 kts | 70° |
| 2026-05-04 19:03 | 12.98394 | 80.16253 | 51 ft | 0 kts | 75° |
| 2026-05-04 19:03 | 12.98396 | 80.16267 | 51 ft | 1 kts | 81° |
| 2026-05-04 19:03 | 12.98397 | 80.16269 | 52 ft | 2 kts | 78° |
| 2026-05-04 19:04 | 12.98435 | 80.16335 | 53 ft | 16 kts | 71° |
| 2026-05-04 19:04 | 12.98487 | 80.16479 | 53 ft | 28 kts | 69° |
| 2026-05-04 19:04 | 12.98561 | 80.16680 | 52 ft | 32 kts | 70° |
| 2026-05-04 19:04 | 12.98654 | 80.16752 | 50 ft | 19 kts | 343° |
| 2026-05-04 19:05 | 12.98745 | 80.16749 | 52 ft | 20 kts | 38° |
| 2026-05-04 19:05 | 12.98820 | 80.16900 | 52 ft | 28 kts | 69° |
| 2026-05-04 19:05 | 12.98890 | 80.17098 | 51 ft | 32 kts | 71° |
| 2026-05-04 19:05 | 12.98973 | 80.17274 | 57 ft | 29 kts | 62° |
| 2026-05-04 19:06 | 12.99054 | 80.17474 | 55 ft | 32 kts | 70° |
| 2026-05-04 19:06 | 12.99101 | 80.17605 | 57 ft | 16 kts | 70° |
| 2026-05-04 19:06 | 12.99129 | 80.17678 | 56 ft | 0 kts | 53° |
| 2026-05-04 19:09 | 12.99170 | 80.17699 | 57 ft | 27 kts | 22° |
| 2026-05-04 19:09 | 12.99246 | 80.17833 | 57 ft | 32 kts | 66° |
| 2026-05-04 19:09 | 12.99351 | 80.18096 | 59 ft | 34 kts | 64° |
| 2026-05-04 19:10 | 12.99436 | 80.18098 | 60 ft | 24 kts | 315° |
| 2026-05-04 19:10 | 12.99452 | 80.18050 | 62 ft | 7 kts | 257° |
| 2026-05-04 19:10 | 12.99439 | 80.18023 | 58 ft | 8 kts | 245° |
| 2026-05-04 19:10 | 12.99374 | 80.17861 | 57 ft | 64 kts | 249° |
| 2026-05-04 19:11 | 12.99079 | 80.17084 | 61 ft | 163 kts | 248° |
| 2026-05-04 19:11 | 12.98640 | 80.15838 | 536 ft | 199 kts | 249° |
| 2026-05-04 19:11 | 12.98178 | 80.14552 | 1540 ft | 187 kts | 245° |
| 2026-05-04 19:11 | 12.97712 | 80.13288 | 2653 ft | 197 kts | 243° |
| 2026-05-04 19:12 | 12.97180 | 80.11905 | 3436 ft | 220 kts | 244° |
| 2026-05-04 19:12 | 12.95941 | 80.08681 | 5191 ft | 254 kts | 247° |
| 2026-05-04 19:12 | 12.95289 | 80.06966 | 6157 ft | 262 kts | 248° |
| 2026-05-04 19:13 | 12.94619 | 80.05200 | 6475 ft | 268 kts | 249° |
| 2026-05-04 19:13 | 12.93944 | 80.03415 | 6158 ft | 266 kts | 248° |
| 2026-05-04 19:13 | 12.93279 | 80.01652 | 5853 ft | 274 kts | 248° |
| 2026-05-04 19:13 | 12.92574 | 79.99787 | 5835 ft | 286 kts | 248° |
| 2026-05-04 19:14 | 12.91848 | 79.97872 | 5830 ft | 285 kts | 248° |
| 2026-05-04 19:14 | 12.91130 | 79.95979 | 5833 ft | 285 kts | 248° |
| 2026-05-04 19:14 | 12.90408 | 79.94074 | 5832 ft | 286 kts | 248° |
| 2026-05-04 19:14 | 12.89598 | 79.92216 | 5862 ft | 287 kts | 240° |
| 2026-05-04 19:15 | 12.88617 | 79.90412 | 6321 ft | 291 kts | 240° |
| 2026-05-04 19:15 | 12.87639 | 79.88588 | 7425 ft | 291 kts | 241° |
| 2026-05-04 19:15 | 12.86679 | 79.86792 | 8602 ft | 296 kts | 242° |
| 2026-05-04 19:15 | 12.85666 | 79.84894 | 9744 ft | 302 kts | 242° |
| 2026-05-04 19:16 | 12.84640 | 79.82972 | 10605 ft | 318 kts | 242° |
| 2026-05-04 19:16 | 12.83539 | 79.80907 | 11148 ft | 341 kts | 242° |
| 2026-05-04 19:16 | 12.82366 | 79.78711 | 11836 ft | 357 kts | 242° |
| 2026-05-04 19:16 | 12.81165 | 79.76467 | 12864 ft | 361 kts | 242° |
| 2026-05-04 19:17 | 12.79948 | 79.74202 | 13878 ft | 365 kts | 241° |
| 2026-05-04 19:17 | 12.78390 | 79.72129 | 14793 ft | 370 kts | 225° |
| 2026-05-04 19:17 | 12.76304 | 79.70578 | 15770 ft | 373 kts | 208° |
| 2026-05-04 19:17 | 12.73891 | 79.69562 | 16713 ft | 375 kts | 201° |
| 2026-05-04 19:18 | 12.71470 | 79.68630 | 17624 ft | 377 kts | 201° |
| 2026-05-04 19:18 | 12.68995 | 79.67678 | 18449 ft | 381 kts | 201° |
| 2026-05-04 19:18 | 12.66501 | 79.66713 | 19143 ft | 385 kts | 201° |
| 2026-05-04 19:18 | 12.63979 | 79.65732 | 19846 ft | 389 kts | 201° |
| 2026-05-04 19:19 | 12.61432 | 79.64739 | 20528 ft | 394 kts | 201° |
| 2026-05-04 19:19 | 12.58847 | 79.63730 | 21201 ft | 398 kts | 201° |
| 2026-05-04 19:19 | 12.56245 | 79.62715 | 21859 ft | 402 kts | 200° |
| 2026-05-04 19:19 | 12.53615 | 79.61689 | 22488 ft | 407 kts | 200° |
| 2026-05-04 19:20 | 12.50951 | 79.60650 | 23142 ft | 411 kts | 200° |
| 2026-05-04 19:20 | 12.48263 | 79.59603 | 23718 ft | 416 kts | 200° |
| 2026-05-04 19:20 | 12.45545 | 79.58545 | 24237 ft | 419 kts | 200° |
| 2026-05-04 19:20 | 12.42808 | 79.57480 | 24761 ft | 423 kts | 200° |
| 2026-05-04 19:21 | 12.40047 | 79.56406 | 25265 ft | 426 kts | 200° |
| 2026-05-04 19:21 | 12.37260 | 79.55322 | 25763 ft | 430 kts | 201° |
| 2026-05-04 19:21 | 12.34450 | 79.54229 | 26254 ft | 433 kts | 201° |
| 2026-05-04 19:21 | 12.31657 | 79.53143 | 26725 ft | 437 kts | 201° |
| 2026-05-04 19:22 | 12.28769 | 79.52021 | 27179 ft | 440 kts | 201° |
| 2026-05-04 19:22 | 12.25926 | 79.50917 | 27620 ft | 444 kts | 201° |
| 2026-05-04 19:22 | 12.23029 | 79.49791 | 28068 ft | 447 kts | 201° |
| 2026-05-04 19:22 | 12.20108 | 79.48656 | 28491 ft | 451 kts | 201° |
| 2026-05-04 19:23 | 12.17161 | 79.47512 | 28896 ft | 454 kts | 201° |
| 2026-05-04 19:23 | 12.14201 | 79.46363 | 29315 ft | 457 kts | 201° |
| 2026-05-04 19:23 | 12.11209 | 79.45201 | 29704 ft | 461 kts | 201° |
| 2026-05-04 19:23 | 12.08201 | 79.44034 | 30082 ft | 464 kts | 201° |
| 2026-05-04 19:24 | 12.05173 | 79.42860 | 30463 ft | 466 kts | 201° |
| 2026-05-04 19:24 | 12.02133 | 79.41681 | 30847 ft | 468 kts | 201° |
| 2026-05-04 19:24 | 11.99071 | 79.40494 | 31291 ft | 469 kts | 201° |
| 2026-05-04 19:24 | 11.96030 | 79.39315 | 31804 ft | 467 kts | 201° |
| 2026-05-04 19:25 | 11.93004 | 79.38143 | 32338 ft | 465 kts | 201° |
| 2026-05-04 19:25 | 11.89973 | 79.36968 | 32868 ft | 463 kts | 201° |
| 2026-05-04 19:25 | 11.86960 | 79.35801 | 33348 ft | 462 kts | 201° |
| 2026-05-04 19:25 | 11.83985 | 79.34649 | 33824 ft | 462 kts | 201° |
| 2026-05-04 19:26 | 11.80989 | 79.33489 | 34244 ft | 460 kts | 201° |
| 2026-05-04 19:26 | 11.77989 | 79.32328 | 34626 ft | 459 kts | 201° |
| 2026-05-04 19:26 | 11.75007 | 79.31174 | 34800 ft | 457 kts | 201° |
| 2026-05-04 19:27 | 11.69055 | 79.28871 | 34856 ft | 457 kts | 201° |
| 2026-05-04 19:27 | 11.63012 | 79.26833 | 34860 ft | 458 kts | 191° |
| 2026-05-04 19:27 | 11.59842 | 79.26523 | 34859 ft | 459 kts | 180° |
| 2026-05-04 19:28 | 11.56695 | 79.26790 | 34860 ft | 460 kts | 170° |
| 2026-05-04 19:28 | 11.50684 | 79.29018 | 34860 ft | 463 kts | 153° |
| 2026-05-04 19:29 | 11.44965 | 79.32064 | 34855 ft | 463 kts | 153° |
| 2026-05-04 19:29 | 11.39234 | 79.35095 | 34852 ft | 463 kts | 153° |
| 2026-05-04 19:30 | 11.33513 | 79.38119 | 34850 ft | 463 kts | 153° |
| 2026-05-04 19:30 | 11.27798 | 79.41137 | 34847 ft | 463 kts | 153° |
| 2026-05-04 19:31 | 11.22090 | 79.44138 | 34848 ft | 463 kts | 153° |
| 2026-05-04 19:31 | 11.16352 | 79.47153 | 34846 ft | 463 kts | 153° |
| 2026-05-04 19:32 | 11.10631 | 79.50159 | 34847 ft | 463 kts | 154° |
| 2026-05-04 19:32 | 11.04891 | 79.53174 | 34850 ft | 463 kts | 154° |
| 2026-05-04 19:33 | 10.99202 | 79.56160 | 34850 ft | 463 kts | 154° |
| 2026-05-04 19:33 | 10.93480 | 79.59163 | 34855 ft | 462 kts | 154° |
| 2026-05-04 19:34 | 10.87768 | 79.62159 | 34856 ft | 462 kts | 154° |
| 2026-05-04 19:34 | 10.82024 | 79.65171 | 34855 ft | 461 kts | 154° |
| 2026-05-04 19:35 | 10.76368 | 79.68135 | 34855 ft | 460 kts | 154° |
| 2026-05-04 19:35 | 10.70682 | 79.71116 | 34855 ft | 459 kts | 154° |
| 2026-05-04 19:36 | 10.65935 | 79.73611 | 34851 ft | 458 kts | 153° |
| 2026-05-04 19:36 | 10.60289 | 79.76578 | 34851 ft | 456 kts | 153° |
| 2026-05-04 19:37 | 10.54649 | 79.79539 | 34848 ft | 455 kts | 154° |
| 2026-05-04 19:37 | 10.49031 | 79.82486 | 34841 ft | 453 kts | 154° |
| 2026-05-04 19:38 | 10.43462 | 79.85407 | 34840 ft | 452 kts | 153° |
| 2026-05-04 19:38 | 10.37887 | 79.88331 | 34840 ft | 450 kts | 154° |
| 2026-05-04 19:39 | 10.32320 | 79.91249 | 34837 ft | 449 kts | 154° |
| 2026-05-04 19:39 | 10.26768 | 79.94157 | 34828 ft | 448 kts | 154° |
| 2026-05-04 19:40 | 10.21216 | 79.97064 | 34824 ft | 448 kts | 154° |
| 2026-05-04 19:40 | 10.15679 | 79.99962 | 34824 ft | 448 kts | 154° |
| 2026-05-04 19:41 | 10.10102 | 80.02880 | 34842 ft | 452 kts | 154° |
| 2026-05-04 19:41 | 10.04494 | 80.05793 | 34842 ft | 452 kts | 156° |
| 2026-05-04 19:42 | 9.98525 | 80.07698 | 34846 ft | 450 kts | 171° |
| 2026-05-04 19:42 | 9.92273 | 80.08023 | 34845 ft | 450 kts | 182° |
| 2026-05-04 19:43 | 9.86053 | 80.07891 | 34844 ft | 450 kts | 181° |
| 2026-05-04 19:43 | 9.79785 | 80.07774 | 34849 ft | 450 kts | 181° |
| 2026-05-04 19:44 | 9.73548 | 80.07656 | 34491 ft | 445 kts | 181° |
| 2026-05-04 19:44 | 9.70452 | 80.07596 | 33836 ft | 445 kts | 181° |
| 2026-05-04 19:44 | 9.67353 | 80.07537 | 32943 ft | 446 kts | 181° |
| 2026-05-04 19:44 | 9.64242 | 80.07477 | 31980 ft | 448 kts | 181° |
| 2026-05-04 19:45 | 9.61109 | 80.07416 | 31001 ft | 451 kts | 181° |
| 2026-05-04 19:45 | 9.57950 | 80.07356 | 30032 ft | 453 kts | 181° |
| 2026-05-04 19:45 | 9.54846 | 80.07296 | 29171 ft | 451 kts | 181° |
| 2026-05-04 19:45 | 9.51735 | 80.07236 | 28429 ft | 444 kts | 181° |
| 2026-05-04 19:46 | 9.48621 | 80.07176 | 27680 ft | 439 kts | 181° |
| 2026-05-04 19:46 | 9.45632 | 80.07119 | 26949 ft | 434 kts | 181° |
| 2026-05-04 19:46 | 9.42614 | 80.07060 | 26224 ft | 429 kts | 181° |
| 2026-05-04 19:46 | 9.39641 | 80.07003 | 25517 ft | 425 kts | 181° |
| 2026-05-04 19:47 | 9.36696 | 80.06947 | 24830 ft | 420 kts | 180° |
| 2026-05-04 19:47 | 9.33780 | 80.06890 | 24181 ft | 416 kts | 180° |
| 2026-05-04 19:47 | 9.30902 | 80.06835 | 23509 ft | 413 kts | 180° |
| 2026-05-04 19:47 | 9.28040 | 80.06780 | 22758 ft | 409 kts | 180° |
| 2026-05-04 19:48 | 9.25215 | 80.06725 | 22035 ft | 404 kts | 180° |
| 2026-05-04 19:48 | 9.22416 | 80.06671 | 21305 ft | 400 kts | 181° |
| 2026-05-04 19:48 | 9.19645 | 80.06618 | 20604 ft | 396 kts | 181° |
| 2026-05-04 19:48 | 9.16899 | 80.06565 | 19914 ft | 392 kts | 181° |
| 2026-05-04 19:49 | 9.14173 | 80.06512 | 19219 ft | 389 kts | 181° |
| 2026-05-04 19:49 | 9.11475 | 80.06460 | 18565 ft | 386 kts | 181° |
| 2026-05-04 19:49 | 9.08795 | 80.06408 | 17875 ft | 383 kts | 181° |
| 2026-05-04 19:49 | 9.06179 | 80.06356 | 17167 ft | 379 kts | 181° |
| 2026-05-04 19:50 | 9.03552 | 80.06305 | 16477 ft | 375 kts | 181° |
| 2026-05-04 19:50 | 9.00950 | 80.06253 | 16045 ft | 370 kts | 181° |
| 2026-05-04 19:50 | 8.98361 | 80.06203 | 15882 ft | 374 kts | 181° |
| 2026-05-04 19:50 | 8.95754 | 80.06152 | 15849 ft | 374 kts | 181° |
| 2026-05-04 19:51 | 8.93153 | 80.06102 | 15849 ft | 373 kts | 181° |
| 2026-05-04 19:51 | 8.90547 | 80.06051 | 15852 ft | 374 kts | 181° |
| 2026-05-04 19:51 | 8.87951 | 80.06001 | 15851 ft | 374 kts | 181° |
| 2026-05-04 19:51 | 8.85350 | 80.05951 | 15853 ft | 374 kts | 181° |
| 2026-05-04 19:52 | 8.82741 | 80.05900 | 15855 ft | 374 kts | 181° |
| 2026-05-04 19:52 | 8.80165 | 80.05850 | 15856 ft | 374 kts | 181° |
| 2026-05-04 19:52 | 8.77561 | 80.05800 | 15856 ft | 374 kts | 181° |
| 2026-05-04 19:52 | 8.74961 | 80.05749 | 15852 ft | 373 kts | 181° |
| 2026-05-04 19:53 | 8.72355 | 80.05699 | 15857 ft | 373 kts | 181° |
| 2026-05-04 19:53 | 8.69765 | 80.05649 | 15855 ft | 373 kts | 181° |
| 2026-05-04 19:53 | 8.67166 | 80.05599 | 15851 ft | 374 kts | 181° |
| 2026-05-04 19:53 | 8.64564 | 80.05549 | 15854 ft | 373 kts | 181° |
| 2026-05-04 19:54 | 8.61969 | 80.05501 | 15842 ft | 374 kts | 181° |
| 2026-05-04 19:54 | 8.59365 | 80.05452 | 15644 ft | 373 kts | 181° |
| 2026-05-04 19:54 | 8.56772 | 80.05403 | 15415 ft | 371 kts | 181° |
| 2026-05-04 19:54 | 8.54192 | 80.05353 | 15176 ft | 370 kts | 181° |
| 2026-05-04 19:55 | 8.51620 | 80.05303 | 14943 ft | 369 kts | 181° |
| 2026-05-04 19:55 | 8.49054 | 80.05253 | 14716 ft | 368 kts | 181° |
| 2026-05-04 19:55 | 8.46485 | 80.05203 | 14480 ft | 367 kts | 181° |
| 2026-05-04 19:55 | 8.43930 | 80.05153 | 14254 ft | 366 kts | 181° |
| 2026-05-04 19:56 | 8.41386 | 80.05103 | 14028 ft | 365 kts | 181° |
| 2026-05-04 19:56 | 8.38836 | 80.05053 | 13799 ft | 364 kts | 181° |
| 2026-05-04 19:56 | 8.36308 | 80.05004 | 13567 ft | 363 kts | 181° |
| 2026-05-04 19:56 | 8.33778 | 80.04955 | 13315 ft | 362 kts | 181° |
| 2026-05-04 19:57 | 8.31296 | 80.04907 | 13067 ft | 360 kts | 180° |
| 2026-05-04 19:57 | 8.28786 | 80.04857 | 12815 ft | 359 kts | 180° |
| 2026-05-04 19:57 | 8.26290 | 80.04809 | 12565 ft | 358 kts | 180° |
| 2026-05-04 19:57 | 8.23804 | 80.04760 | 12322 ft | 357 kts | 180° |
| 2026-05-04 19:58 | 8.21326 | 80.04712 | 12075 ft | 355 kts | 180° |
| 2026-05-04 19:58 | 8.18858 | 80.04665 | 11832 ft | 354 kts | 180° |
| 2026-05-04 19:58 | 8.16389 | 80.04617 | 11591 ft | 353 kts | 180° |
| 2026-05-04 19:58 | 8.13936 | 80.04570 | 11351 ft | 352 kts | 180° |
| 2026-05-04 19:59 | 8.11485 | 80.04523 | 11116 ft | 351 kts | 180° |
| 2026-05-04 19:59 | 8.09049 | 80.04476 | 10876 ft | 349 kts | 180° |
| 2026-05-04 19:59 | 8.06624 | 80.04429 | 10647 ft | 348 kts | 180° |
| 2026-05-04 19:59 | 8.04203 | 80.04383 | 10425 ft | 347 kts | 180° |
| 2026-05-04 20:00 | 8.01823 | 80.04337 | 10324 ft | 335 kts | 180° |
| 2026-05-04 20:00 | 7.99542 | 80.04292 | 10193 ft | 320 kts | 180° |
| 2026-05-04 20:00 | 7.97365 | 80.04250 | 10043 ft | 306 kts | 180° |
| 2026-05-04 20:00 | 7.95254 | 80.04210 | 9693 ft | 300 kts | 180° |
| 2026-05-04 20:01 | 7.93197 | 80.04171 | 9535 ft | 294 kts | 180° |
| 2026-05-04 20:01 | 7.91133 | 80.04133 | 9415 ft | 297 kts | 180° |
| 2026-05-04 20:01 | 7.89072 | 80.04094 | 9285 ft | 294 kts | 180° |
| 2026-05-04 20:01 | 7.87028 | 80.04056 | 9160 ft | 293 kts | 180° |
| 2026-05-04 20:02 | 7.84982 | 80.04017 | 9042 ft | 293 kts | 181° |
| 2026-05-04 20:02 | 7.82953 | 80.03978 | 8914 ft | 291 kts | 181° |
| 2026-05-04 20:02 | 7.80925 | 80.03939 | 8788 ft | 291 kts | 181° |
| 2026-05-04 20:02 | 7.78909 | 80.03901 | 8673 ft | 290 kts | 181° |
| 2026-05-04 20:03 | 7.76894 | 80.03862 | 8542 ft | 289 kts | 181° |
| 2026-05-04 20:03 | 7.74894 | 80.03824 | 8421 ft | 287 kts | 181° |
| 2026-05-04 20:03 | 7.72891 | 80.03785 | 8301 ft | 287 kts | 181° |
| 2026-05-04 20:03 | 7.70903 | 80.03747 | 8181 ft | 286 kts | 181° |
| 2026-05-04 20:04 | 7.68915 | 80.03709 | 8060 ft | 284 kts | 181° |
| 2026-05-04 20:04 | 7.66967 | 80.03673 | 7939 ft | 284 kts | 182° |
| 2026-05-04 20:04 | 7.64991 | 80.03635 | 7819 ft | 283 kts | 182° |
| 2026-05-04 20:04 | 7.63027 | 80.03598 | 7683 ft | 283 kts | 182° |
| 2026-05-04 20:05 | 7.61048 | 80.03559 | 7307 ft | 285 kts | 182° |
| 2026-05-04 20:05 | 7.59066 | 80.03521 | 6870 ft | 284 kts | 182° |
| 2026-05-04 20:05 | 7.57092 | 80.03484 | 6454 ft | 282 kts | 182° |
| 2026-05-04 20:05 | 7.55134 | 80.03447 | 6024 ft | 280 kts | 182° |
| 2026-05-04 20:06 | 7.53185 | 80.03412 | 5589 ft | 278 kts | 182° |
| 2026-05-04 20:06 | 7.51269 | 80.03377 | 5166 ft | 275 kts | 183° |
| 2026-05-04 20:06 | 7.49358 | 80.03341 | 4738 ft | 273 kts | 183° |
| 2026-05-04 20:06 | 7.47467 | 80.03305 | 4326 ft | 270 kts | 183° |
| 2026-05-04 20:07 | 7.45593 | 80.03270 | 3903 ft | 268 kts | 184° |
| 2026-05-04 20:07 | 7.43734 | 80.03234 | 3488 ft | 266 kts | 184° |
| 2026-05-04 20:07 | 7.41890 | 80.03197 | 3074 ft | 264 kts | 184° |
| 2026-05-04 20:07 | 7.40044 | 80.03160 | 2695 ft | 260 kts | 184° |
| 2026-05-04 20:08 | 7.38277 | 80.03095 | 2550 ft | 246 kts | 190° |
| 2026-05-04 20:08 | 7.36702 | 80.02602 | 2510 ft | 230 kts | 209° |
| 2026-05-04 20:08 | 7.35394 | 80.01686 | 2520 ft | 232 kts | 219° |
| 2026-05-04 20:08 | 7.34130 | 80.00696 | 2519 ft | 229 kts | 218° |
| 2026-05-04 20:09 | 7.33296 | 80.00051 | 2521 ft | 228 kts | 218° |
| 2026-05-04 20:09 | 7.32063 | 79.99100 | 2515 ft | 214 kts | 218° |
| 2026-05-04 20:09 | 7.30942 | 79.98240 | 2514 ft | 187 kts | 218° |
| 2026-05-04 20:09 | 7.29992 | 79.97513 | 2539 ft | 154 kts | 218° |
| 2026-05-04 20:10 | 7.29238 | 79.96936 | 2516 ft | 121 kts | 218° |
| 2026-05-04 20:10 | 7.28571 | 79.96423 | 2519 ft | 119 kts | 218° |
| 2026-05-04 20:10 | 7.27919 | 79.95920 | 2530 ft | 117 kts | 219° |
| 2026-05-04 20:10 | 7.27274 | 79.95423 | 2524 ft | 117 kts | 219° |
| 2026-05-04 20:11 | 7.26637 | 79.94931 | 2409 ft | 115 kts | 219° |
| 2026-05-04 20:11 | 7.25978 | 79.94423 | 1995 ft | 123 kts | 218° |
| 2026-05-04 20:11 | 7.25314 | 79.93912 | 1740 ft | 118 kts | 217° |
| 2026-05-04 20:11 | 7.24669 | 79.93415 | 1457 ft | 116 kts | 218° |
| 2026-05-04 20:12 | 7.23991 | 79.92894 | 993 ft | 128 kts | 217° |
| 2026-05-04 20:12 | 7.23333 | 79.92386 | 924 ft | 117 kts | 217° |
| 2026-05-04 20:12 | 7.22676 | 79.91881 | 849 ft | 119 kts | 217° |
| 2026-05-04 20:12 | 7.22010 | 79.91367 | 723 ft | 123 kts | 216° |
| 2026-05-04 20:13 | 7.21324 | 79.90838 | 574 ft | 124 kts | 216° |
| 2026-05-04 20:13 | 7.20649 | 79.90319 | 412 ft | 124 kts | 216° |
| 2026-05-04 20:13 | 7.19961 | 79.89790 | 238 ft | 123 kts | 215° |
| 2026-05-04 20:13 | 7.19274 | 79.89260 | 65 ft | 124 kts | 215° |
| 2026-05-04 20:14 | 7.18688 | 79.88825 | 37 ft | 66 kts | 217° |
| 2026-05-04 20:14 | 7.18545 | 79.88719 | 36 ft | 3 kts | 217° |
| 2026-05-04 20:14 | 7.18405 | 79.88611 | 35 ft | 38 kts | 217° |
| 2026-05-04 20:14 | 7.18197 | 79.88463 | 34 ft | 16 kts | 195° |
| 2026-05-04 20:15 | 7.18175 | 79.88471 | 33 ft | 0 kts | 156° |
| 2026-05-04 20:15 | 7.18147 | 79.88469 | 35 ft | 7 kts | 202° |
| 2026-05-04 20:15 | 7.18069 | 79.88355 | 36 ft | 16 kts | 227° |
| 2026-05-04 20:15 | 7.17960 | 79.88265 | 35 ft | 23 kts | 215° |
| 2026-05-04 20:16 | 7.17846 | 79.88258 | 36 ft | 10 kts | 128° |
| 2026-05-04 20:16 | 7.17805 | 79.88329 | 35 ft | 14 kts | 110° |
| 2026-05-04 20:16 | 7.17837 | 79.88424 | 35 ft | 16 kts | 74° |
| 2026-05-04 20:16 | 7.17796 | 79.88526 | 34 ft | 9 kts | 125° |
| 2026-05-04 20:17 | 7.17780 | 79.88549 | 35 ft | 10 kts | 126° |
| 2026-05-04 20:17 | 7.17711 | 79.88626 | 35 ft | 7 kts | 153° |
| 2026-05-04 20:17 | 7.17635 | 79.88600 | 33 ft | 15 kts | 219° |
| 2026-05-04 20:17 | 7.17625 | 79.88591 | 34 ft | 0 kts | 219° |
| 2026-05-04 20:18 | 7.17619 | 79.88586 | 35 ft | 0 kts | 219° |